Time;durP1;ratioP1;P1;durP2;ratioP2;P2;SDS_P1;SDS_P2;PMS_P1;PMS_P2;Temp;Humidity;BMP_temperature;BMP_pressure;BME280_temperature;BME280_humidity;BME280_pressure;Samples;Min_cycle;Max_cycle;Signal;HPM_P1;HPM_P2
2023/03/12 00:00:49;;;;;;;7.30;4.70;;;2.20;99.90;;;;;;4972058;28;20244;-78
2023/03/12 00:03:16;;;;;;;7.40;5.10;;;2.20;99.90;;;;;;4972191;28;20224;-78
2023/03/12 00:05:44;;;;;;;7.37;4.90;;;2.20;99.90;;;;;;4971045;28;20205;-77
2023/03/12 00:08:12;;;;;;;8.27;5.17;;;2.20;99.90;;;;;;4971783;28;20300;-78
2023/03/12 00:10:40;;;;;;;9.73;6.23;;;2.30;99.90;;;;;;4991872;28;20605;-78
2023/03/12 00:13:08;;;;;;;12.27;5.40;;;2.30;99.90;;;;;;4992978;28;20470;-78
2023/03/12 00:15:38;;;;;;;7.07;4.70;;;2.30;99.90;;;;;;4992834;28;20299;-77
2023/03/12 00:18:05;;;;;;;8.03;4.93;;;2.30;99.90;;;;;;4992334;28;20222;-76
2023/03/12 00:20:32;;;;;;;8.93;5.07;;;2.30;99.90;;;;;;4993125;28;20284;-77
2023/03/12 00:22:59;;;;;;;8.27;5.27;;;2.30;99.90;;;;;;4992847;28;20632;-77
2023/03/12 00:25:26;;;;;;;8.07;5.60;;;2.30;99.90;;;;;;4992812;28;20263;-78
2023/03/12 00:27:53;;;;;;;8.87;5.50;;;2.30;99.90;;;;;;4993256;28;20210;-78
2023/03/12 00:30:20;;;;;;;7.17;5.43;;;2.30;99.90;;;;;;4993077;28;20279;-78
2023/03/12 00:32:48;;;;;;;7.73;5.43;;;2.30;99.90;;;;;;4992486;28;20196;-78
2023/03/12 00:35:15;;;;;;;9.60;6.10;;;2.30;99.90;;;;;;4993301;28;20200;-77
2023/03/12 00:37:42;;;;;;;6.93;4.83;;;2.30;99.90;;;;;;4992761;28;20219;-77
2023/03/12 00:40:11;;;;;;;8.67;4.57;;;2.30;99.90;;;;;;5002742;28;20350;-78
2023/03/12 00:42:38;;;;;;;6.40;3.97;;;2.30;99.90;;;;;;5012754;28;20219;-78
2023/03/12 00:45:07;;;;;;;14.40;6.63;;;2.30;99.90;;;;;;5012471;28;20294;-78
2023/03/12 00:47:33;;;;;;;10.57;5.53;;;2.30;99.90;;;;;;5011698;28;20203;-78
2023/03/12 00:50:02;;;;;;;9.67;4.40;;;2.30;99.90;;;;;;5012538;28;20226;-78
2023/03/12 00:52:29;;;;;;;7.90;4.53;;;2.30;99.90;;;;;;5020231;28;20281;-78
2023/03/12 00:54:57;;;;;;;8.27;4.87;;;2.30;99.90;;;;;;5031429;28;20293;-79
2023/03/12 00:57:24;;;;;;;7.00;4.37;;;2.40;99.90;;;;;;5032247;28;20646;-78
2023/03/12 00:59:53;;;;;;;7.73;4.03;;;2.40;99.90;;;;;;5017869;28;20207;-79
2023/03/12 01:02:19;;;;;;;8.77;3.67;;;2.40;99.90;;;;;;5011753;28;20233;-78
2023/03/12 01:04:46;;;;;;;8.47;4.10;;;2.40;99.90;;;;;;5011957;28;20625;-77
2023/03/12 01:07:15;;;;;;;7.07;4.20;;;2.40;99.90;;;;;;5011561;28;20501;-77
2023/03/12 01:09:42;;;;;;;5.37;3.90;;;2.40;99.90;;;;;;5012175;28;20566;-77
2023/03/12 01:12:09;;;;;;;5.70;4.00;;;2.40;99.90;;;;;;5012567;28;20284;-78
2023/03/12 01:14:36;;;;;;;6.30;4.27;;;2.40;99.90;;;;;;5011309;28;20269;-78
2023/03/12 01:17:03;;;;;;;7.37;4.40;;;2.40;99.90;;;;;;5012480;28;20245;-77
2023/03/12 01:19:29;;;;;;;8.53;4.40;;;2.50;99.90;;;;;;5012022;28;20217;-77
2023/03/12 01:21:56;;;;;;;5.47;3.90;;;2.50;99.90;;;;;;5011651;28;20603;-78
2023/03/12 01:24:25;;;;;;;7.37;4.27;;;2.50;99.90;;;;;;5012483;28;20219;-77
2023/03/12 01:26:51;;;;;;;7.97;4.07;;;2.50;99.90;;;;;;5024466;28;20289;-77
2023/03/12 01:29:18;;;;;;;8.17;4.40;;;2.50;99.90;;;;;;5034686;28;20621;-78
2023/03/12 01:31:45;;;;;;;8.37;4.73;;;2.60;99.90;;;;;;5036259;28;20238;-78
2023/03/12 01:34:12;;;;;;;8.23;4.60;;;2.60;99.90;;;;;;5032127;28;20234;-78
2023/03/12 01:36:39;;;;;;;8.00;4.60;;;2.70;99.90;;;;;;5015689;28;20560;-77
2023/03/12 01:39:06;;;;;;;5.73;4.27;;;2.70;99.90;;;;;;5015921;28;20626;-78
2023/03/12 01:41:35;;;;;;;7.87;4.37;;;2.80;99.90;;;;;;5015804;28;20278;-78
2023/03/12 01:44:03;;;;;;;10.33;5.37;;;2.80;99.90;;;;;;5015163;28;20702;-78
2023/03/12 01:46:32;;;;;;;10.13;5.30;;;2.90;99.90;;;;;;5015551;28;20235;-78
2023/03/12 01:49:06;;;;;;;10.40;4.63;;;2.90;99.90;;;;;;5015635;28;20202;-78
2023/03/12 01:51:39;;;;;;;8.87;4.97;;;3.00;99.90;;;;;;5034732;28;20294;-77
2023/03/12 01:54:09;;;;;;;11.23;5.13;;;3.00;99.90;;;;;;5035718;28;20198;-77
2023/03/12 01:56:38;;;;;;;9.87;4.90;;;3.10;99.90;;;;;;5020651;28;20214;-77
2023/03/12 01:59:12;;;;;;;8.17;4.53;;;3.10;99.90;;;;;;5015487;28;20289;-76
2023/03/12 02:01:41;;;;;;;12.07;4.97;;;3.20;99.90;;;;;;5016211;28;20283;-77
2023/03/12 02:04:08;;;;;;;7.50;4.30;;;3.20;99.90;;;;;;5014112;28;20219;-77
2023/03/12 02:06:40;;;;;;;7.03;4.40;;;3.20;99.90;;;;;;5015292;28;20532;-77
2023/03/12 02:09:07;;;;;;;12.67;6.03;;;3.20;99.90;;;;;;5015298;28;20226;-77
2023/03/12 02:11:34;;;;;;;10.97;4.80;;;3.30;99.90;;;;;;5014386;28;20281;-77
2023/03/12 02:14:02;;;;;;;9.03;4.70;;;3.30;99.90;;;;;;5015177;28;20561;-77
2023/03/12 02:16:30;;;;;;;10.70;4.80;;;3.30;99.90;;;;;;5014925;28;20195;-76
2023/03/12 02:19:00;;;;;;;7.43;4.40;;;3.30;99.90;;;;;;5014451;28;20243;-77
2023/03/12 02:21:29;;;;;;;6.47;4.37;;;3.30;99.90;;;;;;5015115;28;20289;-76
2023/03/12 02:24:03;;;;;;;10.47;4.90;;;3.30;99.90;;;;;;5014815;28;20311;-76
2023/03/12 02:26:32;;;;;;;8.27;4.43;;;3.30;99.90;;;;;;5014569;28;20250;-77
2023/03/12 02:29:00;;;;;;;6.67;4.70;;;3.30;99.90;;;;;;5014852;28;20550;-77
2023/03/12 02:31:33;;;;;;;7.40;4.60;;;3.30;99.90;;;;;;5013779;28;20239;-76
2023/03/12 02:34:00;;;;;;;7.57;4.40;;;3.30;99.90;;;;;;5014680;28;20279;-77
2023/03/12 02:36:27;;;;;;;9.73;4.60;;;3.20;99.90;;;;;;5014865;28;20203;-76
2023/03/12 02:38:56;;;;;;;7.27;4.50;;;3.20;99.90;;;;;;5013660;28;20191;-77
2023/03/12 02:41:25;;;;;;;8.63;4.57;;;3.20;99.90;;;;;;5014395;28;20526;-76
2023/03/12 02:44:00;;;;;;;8.70;4.83;;;3.20;99.90;;;;;;5014377;28;20233;-76
2023/03/12 02:46:27;;;;;;;6.67;4.13;;;3.20;99.90;;;;;;5013978;28;20218;-77
2023/03/12 02:48:55;;;;;;;10.87;4.10;;;3.20;99.90;;;;;;5015031;28;20234;-76
2023/03/12 02:51:22;;;;;;;9.63;4.17;;;3.20;99.90;;;;;;5015114;28;20191;-76
2023/03/12 02:53:53;;;;;;;7.93;4.30;;;3.20;99.90;;;;;;5014045;28;20231;-78
2023/03/12 02:56:21;;;;;;;7.80;4.13;;;3.20;99.90;;;;;;5014648;28;20207;-77
2023/03/12 02:58:48;;;;;;;7.10;3.93;;;3.20;99.90;;;;;;5014357;28;20287;-77
2023/03/12 03:01:17;;;;;;;8.23;4.00;;;3.20;99.90;;;;;;5031970;28;20198;-77
2023/03/12 03:03:44;;;;;;;8.37;4.03;;;3.20;99.90;;;;;;5028452;28;20590;-77
2023/03/12 03:06:11;;;;;;;6.00;3.50;;;3.20;99.90;;;;;;5014531;28;20230;-77
2023/03/12 03:08:38;;;;;;;8.57;4.13;;;3.20;99.90;;;;;;5013670;28;20473;-77
2023/03/12 03:11:05;;;;;;;6.40;3.97;;;3.30;99.90;;;;;;5013784;28;20235;-77
2023/03/12 03:13:33;;;;;;;6.93;3.90;;;3.20;99.90;;;;;;5014708;28;20211;-77
2023/03/12 03:16:00;;;;;;;9.77;4.00;;;3.30;99.90;;;;;;5013353;28;20266;-77
2023/03/12 03:18:30;;;;;;;6.73;3.63;;;3.30;99.90;;;;;;5013443;28;20618;-78
2023/03/12 03:20:58;;;;;;;12.40;4.27;;;3.30;99.90;;;;;;5012827;28;20203;-77
2023/03/12 03:23:25;;;;;;;6.47;3.47;;;3.30;99.90;;;;;;5013820;28;20227;-77
2023/03/12 03:25:52;;;;;;;5.33;3.47;;;3.40;99.90;;;;;;5014127;28;20223;-76
2023/03/12 03:28:19;;;;;;;6.73;3.13;;;3.40;99.90;;;;;;5013516;28;20230;-77
2023/03/12 03:30:47;;;;;;;8.03;3.40;;;3.40;99.90;;;;;;5013579;28;20199;-76
2023/03/12 03:33:14;;;;;;;5.10;3.83;;;3.40;99.90;;;;;;5013816;28;20195;-77
2023/03/12 03:35:42;;;;;;;6.13;3.70;;;3.40;99.90;;;;;;5012964;28;20594;-78
2023/03/12 03:38:09;;;;;;;5.00;3.07;;;3.50;99.90;;;;;;5013507;28;20290;-78
2023/03/12 03:40:36;;;;;;;9.37;3.87;;;3.50;99.90;;;;;;5013588;28;20239;-77
2023/03/12 03:43:03;;;;;;;7.23;3.57;;;3.50;99.90;;;;;;5012834;28;20725;-77
2023/03/12 03:45:30;;;;;;;7.70;3.20;;;3.50;99.90;;;;;;5013910;28;20235;-76
2023/03/12 03:47:57;;;;;;;6.00;3.57;;;3.50;99.90;;;;;;5013554;28;20256;-77
2023/03/12 03:50:24;;;;;;;8.13;5.50;;;3.60;99.90;;;;;;5012401;28;20262;-77
2023/03/12 03:52:52;;;;;;;9.30;3.47;;;3.60;99.90;;;;;;5013571;28;20306;-78
2023/03/12 03:55:19;;;;;;;7.97;4.03;;;3.60;99.90;;;;;;5013497;28;20723;-78
2023/03/12 03:57:46;;;;;;;4.93;3.23;;;3.60;99.90;;;;;;5012644;28;20308;-77
2023/03/12 04:00:16;;;;;;;7.90;3.77;;;3.60;99.90;;;;;;5013474;28;20200;-78
2023/03/12 04:02:43;;;;;;;10.97;3.90;;;3.60;99.90;;;;;;5013067;28;20287;-78
2023/03/12 04:05:11;;;;;;;6.57;3.70;;;3.60;99.90;;;;;;5012480;28;20307;-77
2023/03/12 04:07:37;;;;;;;10.03;3.37;;;3.60;99.90;;;;;;5013540;28;20231;-78
2023/03/12 04:10:07;;;;;;;7.97;3.60;;;3.70;99.90;;;;;;5012300;28;20188;-77
2023/03/12 04:12:34;;;;;;;9.73;4.20;;;3.70;99.90;;;;;;5013572;28;20513;-77
2023/03/12 04:15:01;;;;;;;9.97;3.57;;;3.70;99.90;;;;;;5016686;28;20319;-78
2023/03/12 04:17:28;;;;;;;9.27;3.90;;;3.70;99.90;;;;;;5032129;28;20225;-77
2023/03/12 04:19:55;;;;;;;5.90;3.50;;;3.70;99.90;;;;;;5032878;28;20498;-78
2023/03/12 04:22:22;;;;;;;8.53;4.03;;;3.70;99.90;;;;;;5031389;28;20285;-77
2023/03/12 04:24:49;;;;;;;8.13;3.57;;;3.70;99.90;;;;;;5032018;28;20823;-77
2023/03/12 04:27:17;;;;;;;4.40;3.47;;;3.70;99.90;;;;;;5032643;28;20230;-77
2023/03/12 04:29:44;;;;;;;6.47;3.17;;;3.70;99.90;;;;;;5022733;28;20207;-78
2023/03/12 04:32:11;;;;;;;6.37;3.40;;;3.70;99.90;;;;;;5012620;28;20235;-77
2023/03/12 04:34:38;;;;;;;4.67;3.17;;;3.70;99.90;;;;;;5012571;28;20195;-77
2023/03/12 04:37:05;;;;;;;5.43;2.87;;;3.70;99.90;;;;;;5012760;28;20205;-77
2023/03/12 04:39:33;;;;;;;5.60;2.93;;;3.80;99.90;;;;;;5012139;28;20322;-78
2023/03/12 04:42:00;;;;;;;6.87;3.27;;;3.70;99.90;;;;;;5012773;28;20200;-79
2023/03/12 04:44:28;;;;;;;7.37;3.23;;;3.70;99.90;;;;;;5012383;28;20310;-77
2023/03/12 04:46:55;;;;;;;5.93;3.30;;;3.70;99.90;;;;;;5011782;28;20281;-76
2023/03/12 04:49:22;;;;;;;13.30;3.93;;;3.70;99.90;;;;;;5012501;28;20282;-78
2023/03/12 04:51:49;;;;;;;6.10;2.90;;;3.70;99.90;;;;;;5012108;28;20235;-78
2023/03/12 04:54:15;;;;;;;7.47;2.90;;;3.70;99.90;;;;;;5012155;28;20252;-77
2023/03/12 04:56:42;;;;;;;6.17;3.47;;;3.70;99.90;;;;;;5012651;28;20230;-76
2023/03/12 04:59:09;;;;;;;10.43;3.77;;;3.70;99.90;;;;;;5011938;28;20290;-76
2023/03/12 05:01:38;;;;;;;9.10;3.50;;;3.70;99.90;;;;;;5012383;28;20663;-77
2023/03/12 05:04:05;;;;;;;7.33;4.57;;;3.70;99.90;;;;;;5011620;28;20238;-77
2023/03/12 05:06:33;;;;;;;7.97;3.70;;;3.70;99.90;;;;;;5011668;28;20906;-76
2023/03/12 05:09:00;;;;;;;5.67;3.30;;;3.70;99.90;;;;;;5012040;28;20199;-77
2023/03/12 05:11:27;;;;;;;4.87;3.57;;;3.70;99.90;;;;;;5031131;28;20298;-76
2023/03/12 05:13:54;;;;;;;7.67;3.80;;;3.70;99.90;;;;;;5023986;28;20302;-77
2023/03/12 05:16:21;;;;;;;9.40;3.37;;;3.70;99.90;;;;;;5012298;28;20290;-77
2023/03/12 05:18:49;;;;;;;6.30;3.90;;;3.70;99.90;;;;;;5012440;28;20203;-79
2023/03/12 05:21:18;;;;;;;7.60;3.70;;;3.80;99.90;;;;;;5011853;28;20203;-77
2023/03/12 05:23:46;;;;;;;4.97;3.53;;;3.80;99.90;;;;;;5027554;28;20325;-78
2023/03/12 05:26:20;;;;;;;5.87;3.20;;;3.80;99.90;;;;;;5032142;28;20621;-78
2023/03/12 05:28:48;;;;;;;9.50;3.90;;;3.80;99.90;;;;;;5013599;28;20284;-78
2023/03/12 05:31:15;;;;;;;7.93;4.00;;;3.80;99.90;;;;;;5011697;28;20246;-77
2023/03/12 05:33:42;;;;;;;8.80;3.77;;;3.80;99.90;;;;;;5012108;28;20291;-78
2023/03/12 05:36:12;;;;;;;11.30;4.03;;;3.80;99.90;;;;;;5011415;28;20465;-78
2023/03/12 05:38:41;;;;;;;6.50;3.90;;;3.80;99.90;;;;;;5011908;28;20683;-77
2023/03/12 05:41:09;;;;;;;9.03;4.63;;;3.80;99.90;;;;;;5029063;28;20317;-77
2023/03/12 05:43:36;;;;;;;7.03;4.43;;;3.80;99.90;;;;;;5031150;28;20234;-77
2023/03/12 05:46:05;;;;;;;12.97;4.87;;;3.80;99.90;;;;;;5026602;28;20204;-79
2023/03/12 05:48:32;;;;;;;8.57;4.37;;;3.80;99.90;;;;;;5011770;28;20299;-79
2023/03/12 05:50:59;;;;;;;9.13;4.80;;;3.80;99.90;;;;;;5012108;28;20199;-79
2023/03/12 05:53:27;;;;;;;6.87;4.57;;;3.80;99.90;;;;;;5012247;28;20588;-78
2023/03/12 05:55:54;;;;;;;5.93;4.97;;;3.80;99.90;;;;;;5011023;28;20621;-78
2023/03/12 05:58:21;;;;;;;13.10;5.30;;;3.80;99.90;;;;;;5011652;28;20227;-78
2023/03/12 06:00:48;;;;;;;7.93;5.73;;;3.80;99.90;;;;;;5011320;28;20230;-77
2023/03/12 06:03:15;;;;;;;13.80;5.40;;;3.80;99.90;;;;;;5011543;28;20584;-78
2023/03/12 06:05:44;;;;;;;11.20;5.20;;;3.80;99.90;;;;;;5011928;28;20314;-77
2023/03/12 06:08:11;;;;;;;8.33;5.57;;;3.80;99.90;;;;;;5011219;28;20295;-78
2023/03/12 06:10:40;;;;;;;12.50;6.00;;;3.80;99.90;;;;;;5011431;28;20671;-78
2023/03/12 06:13:07;;;;;;;9.70;5.60;;;3.70;99.90;;;;;;5011769;28;20196;-77
2023/03/12 06:15:34;;;;;;;12.70;6.83;;;3.70;99.90;;;;;;5014639;28;20688;-79
2023/03/12 06:18:01;;;;;;;9.47;6.80;;;3.60;99.90;;;;;;5014506;28;20291;-77
2023/03/12 06:20:28;;;;;;;10.27;6.53;;;3.70;99.90;;;;;;5015336;28;20235;-79
2023/03/12 06:22:55;;;;;;;15.80;7.43;;;3.70;99.90;;;;;;5015060;28;20659;-78
2023/03/12 06:25:22;;;;;;;11.80;6.93;;;3.60;99.90;;;;;;5014317;28;20250;-78
2023/03/12 06:27:50;;;;;;;10.10;7.67;;;3.60;99.90;;;;;;5015093;28;20237;-78
2023/03/12 06:30:18;;;;;;;16.00;7.87;;;3.60;99.90;;;;;;5014663;28;20286;-77
2023/03/12 06:32:45;;;;;;;11.93;7.73;;;3.60;99.90;;;;;;5014057;28;20293;-77
2023/03/12 06:35:11;;;;;;;11.30;7.67;;;3.60;99.90;;;;;;5014606;28;20233;-76
2023/03/12 06:37:38;;;;;;;9.57;7.97;;;3.60;99.90;;;;;;5014045;28;20636;-77
2023/03/12 06:40:09;;;;;;;11.53;8.60;;;3.60;99.90;;;;;;5014528;28;20596;-76
2023/03/12 06:42:36;;;;;;;13.30;9.30;;;3.60;99.90;;;;;;5015053;28;20203;-77
2023/03/12 06:45:06;;;;;;;15.80;9.37;;;3.60;99.90;;;;;;5013384;28;20659;-77
2023/03/12 06:47:33;;;;;;;15.33;11.23;;;3.60;99.90;;;;;;5014897;28;20215;-78
2023/03/12 06:50:00;;;;;;;16.30;11.30;;;3.60;99.90;;;;;;5015093;28;20238;-78
2023/03/12 06:52:27;;;;;;;13.40;9.57;;;3.60;99.90;;;;;;5014046;28;20281;-79
2023/03/12 06:54:54;;;;;;;16.93;10.13;;;3.60;99.90;;;;;;5014869;28;20519;-80
2023/03/12 06:57:21;;;;;;;13.80;11.47;;;3.60;99.90;;;;;;5014523;28;20306;-79
2023/03/12 06:59:48;;;;;;;15.73;11.43;;;3.70;99.90;;;;;;5013834;28;20238;-79
2023/03/12 07:02:16;;;;;;;14.70;11.47;;;3.60;99.90;;;;;;5014677;28;20238;-79
2023/03/12 07:04:43;;;;;;;15.50;11.37;;;3.70;99.90;;;;;;5015170;28;20242;-83
2023/03/12 07:07:11;;;;;;;16.40;11.73;;;3.70;99.90;;;;;;5015546;28;20483;-81
2023/03/12 07:09:38;;;;;;;18.50;13.03;;;3.70;99.90;;;;;;5015259;28;20203;-81
2023/03/12 07:12:05;;;;;;;15.40;12.70;;;3.70;99.90;;;;;;5014644;28;20671;-79
2023/03/12 07:14:32;;;;;;;15.63;12.50;;;3.70;99.90;;;;;;5019115;28;20227;-81
2023/03/12 07:17:00;;;;;;;14.57;11.93;;;3.80;99.90;;;;;;5014132;28;20199;-81
2023/03/12 07:19:29;;;;;;;17.57;13.30;;;3.80;99.90;;;;;;5014075;28;20199;-80
2023/03/12 07:21:56;;;;;;;17.60;13.27;;;3.80;99.90;;;;;;5014263;28;20286;-79
2023/03/12 07:24:24;;;;;;;17.43;13.63;;;3.80;99.90;;;;;;5014705;28;20755;-80
2023/03/12 07:26:50;;;;;;;20.07;14.37;;;3.90;99.90;;;;;;5014199;28;20310;-81
2023/03/12 07:29:17;;;;;;;22.13;14.20;;;3.90;99.90;;;;;;5029042;28;20237;-80
2023/03/12 07:31:44;;;;;;;18.87;13.37;;;3.90;99.90;;;;;;5032699;28;20494;-80
2023/03/12 07:34:11;;;;;;;18.90;14.43;;;3.90;99.90;;;;;;5026251;28;20250;-80
2023/03/12 07:36:46;;;;;;;19.47;15.07;;;3.90;99.90;;;;;;5037462;28;20206;-80
2023/03/12 07:39:13;;;;;;;19.30;15.80;;;4.00;99.90;;;;;;5052687;28;20368;-82
2023/03/12 07:41:40;;;;;;;19.80;15.30;;;4.00;99.90;;;;;;5018853;28;20294;-80
2023/03/12 07:44:08;;;;;;;18.63;14.93;;;4.00;99.90;;;;;;5014575;28;20286;-81
2023/03/12 07:46:35;;;;;;;22.07;16.60;;;4.10;99.90;;;;;;5014523;28;20648;-82
2023/03/12 07:49:03;;;;;;;19.90;15.97;;;4.10;99.90;;;;;;4998867;28;20216;-83
2023/03/12 07:51:30;;;;;;;17.57;15.63;;;4.20;99.90;;;;;;5033770;28;20594;-81
2023/03/12 07:53:58;;;;;;;18.07;15.87;;;4.20;99.90;;;;;;5029728;28;20198;-82
2023/03/12 07:56:25;;;;;;;19.70;15.67;;;4.30;99.90;;;;;;5031617;28;20237;-77
2023/03/12 07:58:52;;;;;;;16.77;14.60;;;4.20;99.90;;;;;;5028298;28;20211;-81
2023/03/12 08:01:19;;;;;;;19.13;15.30;;;4.30;99.90;;;;;;5032207;28;20505;-81
2023/03/12 08:03:46;;;;;;;21.67;16.73;;;4.30;99.90;;;;;;5023741;28;20238;-78
2023/03/12 08:06:13;;;;;;;21.33;16.27;;;4.30;99.90;;;;;;5024806;28;20215;-78
2023/03/12 08:08:41;;;;;;;21.53;17.77;;;4.50;99.90;;;;;;5033317;28;20603;-78
2023/03/12 08:11:09;;;;;;;25.10;18.07;;;4.50;99.90;;;;;;5025366;28;20238;-79
2023/03/12 08:13:36;;;;;;;23.17;17.77;;;4.50;99.90;;;;;;5013849;28;20538;-79
2023/03/12 08:16:03;;;;;;;23.67;18.00;;;4.60;99.90;;;;;;5012788;28;20533;-77
2023/03/12 08:18:30;;;;;;;21.30;18.43;;;4.70;99.90;;;;;;5013151;28;20570;-78
2023/03/12 08:20:57;;;;;;;24.23;19.27;;;4.70;99.90;;;;;;5013446;28;20238;-79
2023/03/12 08:23:25;;;;;;;25.47;20.70;;;4.70;99.90;;;;;;5012862;28;20596;-79
2023/03/12 08:25:53;;;;;;;26.13;19.50;;;4.80;99.90;;;;;;5013416;28;20234;-80
2023/03/12 08:28:23;;;;;;;27.00;20.63;;;4.80;99.90;;;;;;5012668;28;20571;-77
2023/03/12 08:30:52;;;;;;;26.20;20.37;;;4.90;99.90;;;;;;5028705;28;20293;-79
2023/03/12 08:33:20;;;;;;;28.03;21.07;;;4.90;99.90;;;;;;5033243;28;20232;-78
2023/03/12 08:35:47;;;;;;;25.80;20.63;;;5.00;99.90;;;;;;5033132;28;20595;-80
2023/03/12 08:38:14;;;;;;;27.73;21.13;;;5.00;99.90;;;;;;5025967;28;20293;-83
2023/03/12 08:40:40;;;;;;;28.80;22.43;;;5.00;99.90;;;;;;5013741;28;20325;-81
2023/03/12 08:43:08;;;;;;;35.27;22.57;;;5.00;99.90;;;;;;5013084;28;20222;-81
2023/03/12 08:45:37;;;;;;;27.40;20.87;;;5.10;99.90;;;;;;5012320;28;20514;-81
2023/03/12 08:48:04;;;;;;;34.43;21.93;;;5.10;99.90;;;;;;5028996;28;20695;-82
2023/03/12 08:50:32;;;;;;;28.67;21.83;;;5.20;99.90;;;;;;5032647;28;20683;-81
2023/03/12 08:52:59;;;;;;;31.33;22.07;;;5.30;99.90;;;;;;5032721;28;20294;-81
2023/03/12 08:55:27;;;;;;;30.40;21.97;;;5.40;99.90;;;;;;5032793;28;20202;-82
2023/03/12 08:57:54;;;;;;;32.70;22.83;;;5.50;99.90;;;;;;5012770;28;20294;-81
2023/03/12 09:00:21;;;;;;;36.37;21.27;;;5.50;99.90;;;;;;5011937;28;20289;-81
2023/03/12 09:02:51;;;;;;;40.67;23.00;;;5.60;99.90;;;;;;5013098;28;20206;-81
2023/03/12 09:05:19;;;;;;;41.63;23.70;;;5.70;99.90;;;;;;5028526;28;20222;-79
2023/03/12 09:07:46;;;;;;;45.13;21.23;;;6.00;99.90;;;;;;5031533;28;20242;-79
2023/03/12 09:10:13;;;;;;;37.73;18.00;;;6.10;99.90;;;;;;5032349;28;20238;-80
2023/03/12 09:12:40;;;;;;;37.60;15.77;;;6.30;99.90;;;;;;5021564;28;20207;-79
2023/03/12 09:15:08;;;;;;;34.50;16.23;;;6.40;99.90;;;;;;5012440;28;20571;-79
2023/03/12 09:17:35;;;;;;;30.10;16.77;;;6.50;99.90;;;;;;5011962;28;20619;-78
2023/03/12 09:20:07;;;;;;;37.53;17.33;;;6.70;99.90;;;;;;5011719;28;20195;-80
2023/03/12 09:22:35;;;;;;;40.77;19.30;;;6.80;99.90;;;;;;5012300;28;20198;-77
2023/03/12 09:25:02;;;;;;;47.60;17.23;;;7.00;99.90;;;;;;5012124;28;20257;-78
2023/03/12 09:27:29;;;;;;;43.00;16.77;;;7.20;99.90;;;;;;5011240;28;20203;-77
2023/03/12 09:29:56;;;;;;;36.80;16.07;;;7.30;99.90;;;;;;5012042;28;20292;-76
2023/03/12 09:32:23;;;;;;;39.47;16.33;;;7.40;99.90;;;;;;5011744;28;20801;-79
2023/03/12 09:34:50;;;;;;;35.37;15.10;;;7.50;99.90;;;;;;5011270;28;20310;-78
2023/03/12 09:37:19;;;;;;;36.17;13.97;;;7.70;99.90;;;;;;5016884;28;20385;-77
2023/03/12 09:39:45;;;;;;;40.47;15.23;;;7.80;99.90;;;;;;5022661;28;20234;-78
2023/03/12 09:42:21;;;;;;;32.17;13.17;;;7.90;99.90;;;;;;5019323;28;20210;-79
2023/03/12 09:44:50;;;;;;;40.50;13.77;;;7.90;99.90;;;;;;5030795;28;20260;-79
2023/03/12 09:47:26;;;;;;;40.87;14.03;;;8.00;99.90;;;;;;5028888;28;20650;-80
2023/03/12 09:49:57;;;;;;;35.27;10.70;;;8.20;99.90;;;;;;5023296;28;20677;-77
2023/03/12 09:52:30;;;;;;;30.67;11.80;;;8.40;99.90;;;;;;5030708;28;20199;-79
2023/03/12 09:55:02;;;;;;;38.07;10.20;;;8.40;99.90;;;;;;5031947;28;20540;-78
2023/03/12 09:57:29;;;;;;;30.23;9.50;;;8.60;99.90;;;;;;5035212;28;20532;-78
2023/03/12 09:59:57;;;;;;;28.90;9.63;;;8.70;99.90;;;;;;5029186;28;20218;-82
2023/03/12 10:02:49;;;;;;;36.57;9.57;;;8.70;99.90;;;;;;5031539;28;20213;-78
2023/03/12 10:05:24;;;;;;;30.77;9.47;;;8.80;99.90;;;;;;5023359;28;20306;-77
2023/03/12 10:07:58;;;;;;;27.43;9.53;;;8.90;99.90;;;;;;5020685;28;20284;-78
2023/03/12 10:10:39;;;;;;;36.47;10.63;;;9.10;99.90;;;;;;5026021;28;20289;-80
2023/03/12 10:13:15;;;;;;;44.70;10.37;;;9.20;99.90;;;;;;5019927;28;20235;-77
2023/03/12 10:15:56;;;;;;;28.07;7.57;;;9.30;99.90;;;;;;5026031;28;20202;-76
2023/03/12 10:18:33;;;;;;;42.47;9.07;;;9.30;99.90;;;;;;5029691;28;20207;-77
2023/03/12 10:21:16;;;;;;;33.20;8.83;;;9.40;99.90;;;;;;5028400;28;20210;-78
2023/03/12 10:23:56;;;;;;;39.73;8.27;;;9.50;99.90;;;;;;5031670;28;20241;-79
2023/03/12 10:26:25;;;;;;;38.13;8.20;;;9.50;99.90;;;;;;5019601;28;20211;-77
2023/03/12 10:28:57;;;;;;;27.47;7.53;;;9.60;99.90;;;;;;5030302;28;20203;-77
2023/03/12 10:31:27;;;;;;;35.13;7.97;;;9.80;99.90;;;;;;5025928;28;20199;-77
2023/03/12 10:33:57;;;;;;;37.33;9.33;;;9.80;99.90;;;;;;5034384;28;20692;-79
2023/03/12 10:36:29;;;;;;;38.23;8.47;;;9.80;99.90;;;;;;5027201;28;20195;-78
2023/03/12 10:38:57;;;;;;;31.53;7.60;;;9.80;99.90;;;;;;5033132;28;20217;-79
2023/03/12 10:41:28;;;;;;;28.57;7.37;;;9.90;99.90;;;;;;5033247;28;20504;-80
2023/03/12 10:44:00;;;;;;;34.67;7.30;;;9.90;99.90;;;;;;5033189;28;20694;-80
2023/03/12 10:46:46;;;;;;;32.43;7.17;;;9.90;99.90;;;;;;5029534;28;20301;-76
2023/03/12 10:49:34;;;;;;;22.93;7.00;;;9.90;99.90;;;;;;5034573;28;20269;-80
2023/03/12 10:52:04;;;;;;;33.27;7.83;;;9.90;99.90;;;;;;5032808;28;20599;-79
2023/03/12 10:54:37;;;;;;;28.50;7.63;;;10.00;99.90;;;;;;5015546;28;20238;-77
2023/03/12 10:57:05;;;;;;;31.90;8.27;;;10.00;99.90;;;;;;5025359;28;20280;-78
2023/03/12 10:59:34;;;;;;;34.57;8.33;;;10.10;99.90;;;;;;5026931;28;20589;-75
2023/03/12 11:02:03;;;;;;;26.37;7.13;;;10.10;99.90;;;;;;5013893;28;20294;-75
2023/03/12 11:04:31;;;;;;;22.97;7.67;;;10.20;99.90;;;;;;5029576;28;20755;-80
2023/03/12 11:07:17;;;;;;;33.20;8.80;;;10.20;99.90;;;;;;5020168;28;20678;-75
2023/03/12 11:10:02;;;;;;;27.80;7.43;;;10.30;99.90;;;;;;5031951;28;20211;-75
2023/03/12 11:12:31;;;;;;;31.90;8.27;;;10.40;99.90;;;;;;5026999;28;20285;-76
2023/03/12 11:14:58;;;;;;;27.63;7.60;;;10.40;99.90;;;;;;5033133;28;20314;-77
2023/03/12 11:17:27;;;;;;;40.80;10.13;;;10.50;99.90;;;;;;5028066;28;20600;-77
2023/03/12 11:19:54;;;;;;;28.57;8.53;;;10.60;99.90;;;;;;5035711;28;20302;-76
2023/03/12 11:22:30;;;;;;;35.60;7.93;;;10.60;99.90;;;;;;5021222;28;20294;-77
2023/03/12 11:25:00;;;;;;;34.30;7.87;;;10.70;99.90;;;;;;5031796;28;20645;-77
2023/03/12 11:27:36;;;;;;;39.90;8.97;;;10.80;99.90;;;;;;5021707;28;20347;-76
2023/03/12 11:30:05;;;;;;;37.33;8.90;;;10.80;99.90;;;;;;5020119;28;20201;-76
2023/03/12 11:32:36;;;;;;;33.13;8.73;;;10.90;99.90;;;;;;5023036;28;20293;-76
2023/03/12 11:35:08;;;;;;;28.63;8.17;;;11.00;99.90;;;;;;5030383;28;20206;-77
2023/03/12 11:37:44;;;;;;;34.87;8.27;;;11.20;99.90;;;;;;5035234;28;20202;-77
2023/03/12 11:40:20;;;;;;;31.00;8.53;;;11.30;99.90;;;;;;5032393;28;20309;-78
2023/03/12 11:43:07;;;;;;;26.70;7.77;;;11.40;99.90;;;;;;5033598;28;20221;-76
2023/03/12 11:45:45;;;;;;;35.70;8.53;;;11.40;99.90;;;;;;5031755;28;20202;-79
2023/03/12 11:48:22;;;;;;;36.97;8.47;;;11.30;99.90;;;;;;5037234;28;20605;-78
2023/03/12 11:51:04;;;;;;;39.33;8.87;;;11.20;99.90;;;;;;5017348;28;20615;-79
2023/03/12 11:54:02;;;;;;;36.67;9.80;;;11.20;99.90;;;;;;5017217;28;20230;-77
2023/03/12 11:56:34;;;;;;;34.40;7.77;;;11.30;99.90;;;;;;5032745;28;20286;-78
2023/03/12 11:59:13;;;;;;;35.63;8.20;;;11.20;99.90;;;;;;5030938;28;20206;-78
2023/03/12 12:01:54;;;;;;;30.83;7.30;;;11.30;99.90;;;;;;5027163;28;20286;-77
2023/03/12 12:05:00;;;;;;;39.37;9.57;;;11.30;99.90;;;;;;5022756;28;20282;-77
2023/03/12 12:07:41;;;;;;;36.83;9.20;;;11.40;99.90;;;;;;5030647;28;20223;-80
2023/03/12 12:10:22;;;;;;;34.03;8.30;;;11.50;99.90;;;;;;5017775;28;20230;-79
2023/03/12 12:12:59;;;;;;;32.20;8.63;;;11.50;99.90;;;;;;5024626;28;20199;-77
2023/03/12 12:15:35;;;;;;;41.53;8.63;;;11.60;99.90;;;;;;5030356;28;20590;-77
2023/03/12 12:18:18;;;;;;;29.83;8.10;;;11.60;99.90;;;;;;5012942;28;20199;-79
2023/03/12 12:20:54;;;;;;;45.90;9.00;;;11.70;99.90;;;;;;5013067;28;20222;-78
2023/03/12 12:23:30;;;;;;;35.83;8.90;;;11.80;99.90;;;;;;5011750;28;20257;-79
2023/03/12 12:26:06;;;;;;;36.70;7.83;;;11.80;99.90;;;;;;5032151;28;20217;-80
2023/03/12 12:28:58;;;;;;;44.90;10.00;;;11.80;99.90;;;;;;5031690;28;20225;-80
2023/03/12 12:31:32;;;;;;;35.57;7.77;;;11.90;99.90;;;;;;5032222;28;20634;-79
2023/03/12 12:34:20;;;;;;;33.47;8.10;;;11.90;99.90;;;;;;5029878;28;20310;-77
2023/03/12 12:36:52;;;;;;;30.50;7.50;;;11.90;99.90;;;;;;5012270;28;20666;-76
2023/03/12 12:39:27;;;;;;;32.73;8.60;;;11.90;99.90;;;;;;5014567;28;20673;-78
2023/03/12 12:41:58;;;;;;;36.73;8.73;;;11.90;99.90;;;;;;5024085;28;20236;-77
2023/03/12 12:44:32;;;;;;;35.63;8.37;;;12.00;99.90;;;;;;5019678;28;20235;-77
2023/03/12 12:47:04;;;;;;;35.80;8.33;;;12.00;99.90;;;;;;5013028;28;20298;-77
2023/03/12 12:49:38;;;;;;;37.83;8.87;;;11.90;99.90;;;;;;5012717;28;20199;-77
2023/03/12 12:52:07;;;;;;;41.50;9.27;;;12.00;99.90;;;;;;5011949;28;20289;-77
2023/03/12 12:54:42;;;;;;;34.70;7.53;;;12.00;99.90;;;;;;5014719;28;20207;-77
2023/03/12 12:57:14;;;;;;;47.00;9.80;;;12.00;99.90;;;;;;5028559;28;20205;-77
2023/03/12 12:59:49;;;;;;;32.73;8.00;;;12.10;99.90;;;;;;5012134;28;20200;-77